createdAt,value
2018-07-08T00:01:53.101Z,2.47
2018-07-08T00:04:21.685Z,1.90
2018-07-08T00:06:54.469Z,2.30
2018-07-08T00:09:22.660Z,2.12
2018-07-08T00:11:50.974Z,2.10
2018-07-08T00:14:19.089Z,2.10
2018-07-08T00:16:47.595Z,1.70
2018-07-08T00:19:16.011Z,1.90
2018-07-08T00:21:44.129Z,1.90
2018-07-08T00:24:12.329Z,2.40
2018-07-08T00:26:40.758Z,2.10
2018-07-08T00:29:08.986Z,2.00
2018-07-08T00:31:37.829Z,3.08
2018-07-08T00:34:06.269Z,1.65
2018-07-08T00:36:35.038Z,2.47
2018-07-08T00:39:03.955Z,2.35
2018-07-08T00:41:32.335Z,2.10
2018-07-08T00:44:00.964Z,2.10
2018-07-08T00:46:29.599Z,2.50
2018-07-08T00:48:57.857Z,2.42
2018-07-08T00:51:26.140Z,2.15
2018-07-08T00:53:54.291Z,1.72
2018-07-08T00:56:22.603Z,3.17
2018-07-08T00:58:51.269Z,2.40
2018-07-08T01:01:19.646Z,2.70
2018-07-08T01:03:47.843Z,2.20
2018-07-08T01:06:15.997Z,4.57
2018-07-08T01:08:44.564Z,2.20
2018-07-08T01:11:13.271Z,2.40
2018-07-08T01:13:41.683Z,2.50
2018-07-08T01:16:09.897Z,2.67
2018-07-08T01:18:38.073Z,2.20
2018-07-08T01:21:06.497Z,1.90
2018-07-08T01:23:34.821Z,2.20
2018-07-08T01:26:07.034Z,2.03
2018-07-08T01:28:35.066Z,2.20
2018-07-08T01:31:03.403Z,2.80
2018-07-08T01:33:32.084Z,2.02
2018-07-08T01:36:00.415Z,2.45
2018-07-08T01:38:28.677Z,2.40
2018-07-08T01:40:57.359Z,2.10
2018-07-08T01:43:25.985Z,3.00
2018-07-08T01:45:54.472Z,2.20
2018-07-08T01:48:22.954Z,2.00
2018-07-08T01:50:51.824Z,2.60
2018-07-08T01:53:20.282Z,2.12
2018-07-08T01:55:48.742Z,1.90
2018-07-08T01:58:17.184Z,2.10
2018-07-08T02:00:45.567Z,2.65
2018-07-08T02:03:13.870Z,2.22
2018-07-08T02:05:42.495Z,1.98
2018-07-08T02:08:11.421Z,2.25
2018-07-08T02:10:39.433Z,1.90
2018-07-08T02:13:07.966Z,2.40
2018-07-08T02:15:36.397Z,2.20
2018-07-08T02:18:04.502Z,2.30
2018-07-08T02:20:33.522Z,2.10
2018-07-08T02:23:01.776Z,2.20
2018-07-08T02:25:30.174Z,2.12
2018-07-08T02:27:58.966Z,2.75
2018-07-08T02:30:27.113Z,2.20
2018-07-08T02:32:55.325Z,3.10
2018-07-08T02:35:23.708Z,2.50
2018-07-08T02:37:52.589Z,2.25
2018-07-08T02:40:21.029Z,2.60
2018-07-08T02:42:49.766Z,2.12
2018-07-08T02:45:18.010Z,2.45
2018-07-08T02:47:46.314Z,1.95
2018-07-08T02:50:14.782Z,2.50
2018-07-08T02:52:43.334Z,2.00
2018-07-08T02:55:11.415Z,2.40
2018-07-08T02:57:39.734Z,2.37
2018-07-08T03:00:07.894Z,2.40
2018-07-08T03:02:36.494Z,2.52
2018-07-08T03:05:04.693Z,2.20
2018-07-08T03:07:33.111Z,2.20
2018-07-08T03:10:01.346Z,2.30
2018-07-08T03:12:29.459Z,2.08
2018-07-08T03:14:57.865Z,2.27
2018-07-08T03:17:25.888Z,2.00
2018-07-08T03:19:54.538Z,2.70
2018-07-08T03:22:22.705Z,2.30
2018-07-08T03:24:50.992Z,2.27
2018-07-08T03:27:19.142Z,2.45
2018-07-08T03:29:47.537Z,2.33
2018-07-08T03:32:15.722Z,2.30
2018-07-08T03:34:44.064Z,2.70
2018-07-08T03:37:12.286Z,2.70
2018-07-08T03:39:40.421Z,1.90
2018-07-08T03:42:08.438Z,2.63
2018-07-08T03:44:37.087Z,1.80
2018-07-08T03:47:05.395Z,2.30
2018-07-08T03:49:33.590Z,1.95
2018-07-08T03:52:02.038Z,2.60
2018-07-08T03:54:32.066Z,2.60
2018-07-08T03:57:00.153Z,2.10
2018-07-08T03:59:28.669Z,2.60
2018-07-08T04:01:56.865Z,2.10
2018-07-08T04:04:25.314Z,2.37
2018-07-08T04:06:54.166Z,2.60
2018-07-08T04:09:22.822Z,2.42
2018-07-08T04:11:51.325Z,2.40
2018-07-08T04:14:19.877Z,2.58
2018-07-08T04:16:48.782Z,2.60
2018-07-08T04:19:17.037Z,2.67
2018-07-08T04:21:45.218Z,2.17
2018-07-08T04:24:13.921Z,2.50
2018-07-08T04:26:42.162Z,2.60
2018-07-08T04:29:10.835Z,2.30
2018-07-08T04:31:39.033Z,2.72
2018-07-08T04:34:07.110Z,2.10
2018-07-08T04:36:35.432Z,2.55
2018-07-08T04:39:04.278Z,2.80
2018-07-08T04:41:32.769Z,2.10
2018-07-08T04:44:00.995Z,2.37
2018-07-08T04:46:29.107Z,2.10
2018-07-08T04:48:57.401Z,2.17
2018-07-08T04:51:25.842Z,2.05
2018-07-08T04:53:53.869Z,2.12
2018-07-08T04:56:22.329Z,3.67
2018-07-08T04:58:51.559Z,2.08
2018-07-08T05:01:19.762Z,2.47
2018-07-08T05:03:48.612Z,2.45
2018-07-08T05:06:16.613Z,2.35
2018-07-08T05:08:45.054Z,2.00
2018-07-08T05:11:13.098Z,2.42
2018-07-08T05:13:41.456Z,4.25
2018-07-08T05:16:09.618Z,3.30
2018-07-08T05:18:37.781Z,2.67
2018-07-08T05:21:06.670Z,2.90
2018-07-08T05:23:34.791Z,2.52
2018-07-08T05:26:03.210Z,2.33
2018-07-08T05:28:31.679Z,2.62
2018-07-08T05:31:00.565Z,2.33
2018-07-08T05:33:28.902Z,2.77
2018-07-08T05:35:57.219Z,2.12
2018-07-08T05:38:25.471Z,2.80
2018-07-08T05:40:53.670Z,2.30
2018-07-08T05:43:22.154Z,2.65
2018-07-08T05:45:50.446Z,2.35
2018-07-08T05:48:18.470Z,2.57
2018-07-08T05:50:47.586Z,2.27
2018-07-08T05:53:16.293Z,2.20
2018-07-08T05:55:44.493Z,2.50
2018-07-08T05:58:12.735Z,2.87
2018-07-08T06:00:40.756Z,2.77
2018-07-08T06:03:09.070Z,1.90
2018-07-08T06:05:37.466Z,2.60
2018-07-08T06:08:05.694Z,2.30
2018-07-08T06:10:33.850Z,2.50
2018-07-08T06:13:02.602Z,2.77
2018-07-08T06:15:31.021Z,2.45
2018-07-08T06:17:59.134Z,2.40
2018-07-08T06:20:27.642Z,2.50
2018-07-08T06:22:56.108Z,2.60
2018-07-08T06:25:25.110Z,2.30
2018-07-08T06:27:53.470Z,2.40
2018-07-08T06:30:21.765Z,2.98
2018-07-08T06:32:50.148Z,2.70
2018-07-08T06:35:18.706Z,2.90
2018-07-08T06:37:47.010Z,3.20
2018-07-08T06:40:15.263Z,2.50
2018-07-08T06:42:43.409Z,3.02
2018-07-08T06:45:12.350Z,2.77
2018-07-08T06:47:40.818Z,2.30
2018-07-08T06:50:09.047Z,2.67
2018-07-08T06:52:37.489Z,2.45
2018-07-08T06:55:05.979Z,2.42
2018-07-08T06:57:34.378Z,2.80
2018-07-08T07:00:02.540Z,2.70
2018-07-08T07:02:30.758Z,2.10
2018-07-08T07:04:59.190Z,2.80
2018-07-08T07:07:27.528Z,2.47
2018-07-08T07:09:57.343Z,3.00
2018-07-08T07:12:25.628Z,2.90
2018-07-08T07:14:54.043Z,2.95
2018-07-08T07:17:22.125Z,2.60
2018-07-08T07:19:50.687Z,2.70
2018-07-08T07:22:19.609Z,2.75
2018-07-08T07:24:47.875Z,2.70
2018-07-08T07:27:15.888Z,2.22
2018-07-08T07:29:44.115Z,2.55
2018-07-08T07:32:12.467Z,2.58
2018-07-08T07:34:40.963Z,2.60
2018-07-08T07:37:09.341Z,2.50
2018-07-08T07:39:37.563Z,3.10
2018-07-08T07:42:06.004Z,2.67
2018-07-08T07:44:34.484Z,3.50
2018-07-08T07:47:03.170Z,2.58
2018-07-08T07:49:31.855Z,3.43
2018-07-08T07:52:00.392Z,2.83
2018-07-08T07:54:29.325Z,3.25
2018-07-08T07:56:57.378Z,3.95
2018-07-08T07:59:26.063Z,2.90
2018-07-08T08:01:54.144Z,5.40
2018-07-08T08:04:22.190Z,2.90
2018-07-08T08:06:50.913Z,2.70
2018-07-08T08:09:19.124Z,2.97
2018-07-08T08:11:47.710Z,3.30
2018-07-08T08:14:16.410Z,2.98
2018-07-08T08:16:44.472Z,3.10
2018-07-08T08:19:13.087Z,2.70
2018-07-08T08:21:41.251Z,2.57
2018-07-08T08:24:09.965Z,2.70
2018-07-08T08:26:38.626Z,2.72
2018-07-08T08:29:06.695Z,2.98
2018-07-08T08:31:34.913Z,2.70
2018-07-08T08:35:16.063Z,2.60
2018-07-08T08:37:46.662Z,2.92
2018-07-08T08:40:16.106Z,2.80
2018-07-08T08:42:44.185Z,2.80
2018-07-08T08:45:13.713Z,4.00
2018-07-08T08:47:41.910Z,3.70
2018-07-08T08:50:10.676Z,3.37
2018-07-08T08:52:38.900Z,3.30
2018-07-08T08:55:07.642Z,2.80
2018-07-08T08:57:35.813Z,3.10
2018-07-08T09:00:04.962Z,3.50
2018-07-08T09:02:33.089Z,3.10
2018-07-08T09:05:01.671Z,2.62
2018-07-08T09:07:29.973Z,3.00
2018-07-08T09:09:58.085Z,3.00
2018-07-08T09:12:26.291Z,2.90
2018-07-08T09:14:54.340Z,3.50
2018-07-08T09:17:22.837Z,3.30
2018-07-08T09:19:51.138Z,2.70
2018-07-08T09:22:20.095Z,3.93
2018-07-08T09:24:48.593Z,3.50
2018-07-08T09:27:17.297Z,3.20
2018-07-08T09:29:45.586Z,2.75
2018-07-08T09:32:14.066Z,3.15
2018-07-08T09:34:42.218Z,4.15
2018-07-08T09:37:10.245Z,3.30
2018-07-08T09:39:38.471Z,2.75
2018-07-08T09:42:06.543Z,2.70
2018-07-08T09:44:34.770Z,3.50
2018-07-08T09:47:02.921Z,2.70
2018-07-08T09:49:31.091Z,3.10
2018-07-08T09:51:59.268Z,2.95
2018-07-08T09:54:27.583Z,3.10
2018-07-08T09:56:55.875Z,3.60
2018-07-08T09:59:23.905Z,3.37
2018-07-08T10:02:04.389Z,3.30
2018-07-08T10:04:45.538Z,3.95
2018-07-08T10:07:15.143Z,3.30
2018-07-08T10:09:43.350Z,3.00
2018-07-08T10:12:11.982Z,3.23
2018-07-08T10:14:40.566Z,3.10
2018-07-08T10:17:10.242Z,3.85
2018-07-08T10:19:38.642Z,3.20
2018-07-08T10:22:06.735Z,3.42
2018-07-08T10:24:35.107Z,3.60
2018-07-08T10:27:09.110Z,3.45
2018-07-08T10:29:37.327Z,3.20
2018-07-08T10:32:06.077Z,3.20
2018-07-08T10:34:34.358Z,3.70
2018-07-08T10:37:02.557Z,3.22
2018-07-08T10:39:30.706Z,2.80
2018-07-08T10:41:59.201Z,2.90
2018-07-08T10:44:27.455Z,3.10
2018-07-08T10:46:55.670Z,3.33
2018-07-08T10:49:24.206Z,3.80
2018-07-08T10:51:52.782Z,3.60
2018-07-08T10:54:21.584Z,3.00
2018-07-08T10:56:49.759Z,3.25
2018-07-08T10:59:17.815Z,2.90
2018-07-08T11:01:45.898Z,3.00
2018-07-08T11:04:14.149Z,2.90
2018-07-08T11:06:42.645Z,2.60
2018-07-08T11:09:10.902Z,2.92
2018-07-08T11:11:39.122Z,2.73
2018-07-08T11:14:07.597Z,2.90
2018-07-08T11:16:35.880Z,2.80
2018-07-08T11:19:04.477Z,3.20
2018-07-08T11:21:33.045Z,3.17
2018-07-08T11:24:01.415Z,3.40
2018-07-08T11:26:29.974Z,3.30
2018-07-08T11:28:58.386Z,3.00
2018-07-08T11:31:26.766Z,3.20
2018-07-08T11:33:55.449Z,3.03
2018-07-08T11:36:23.531Z,2.80
2018-07-08T11:38:51.677Z,2.70
2018-07-08T11:41:19.709Z,3.10
2018-07-08T11:43:47.838Z,2.85
2018-07-08T11:46:16.049Z,2.70
2018-07-08T11:48:44.211Z,2.90
2018-07-08T11:51:12.266Z,2.92
2018-07-08T11:53:40.291Z,2.40
2018-07-08T11:56:08.613Z,2.90
2018-07-08T11:58:37.078Z,3.27
2018-07-08T12:01:05.181Z,3.20
2018-07-08T12:03:33.294Z,3.27
2018-07-08T12:06:01.395Z,3.10
2018-07-08T12:08:29.799Z,3.00
2018-07-08T12:10:58.441Z,3.10
2018-07-08T12:13:26.509Z,2.80
2018-07-08T12:15:54.620Z,2.50
2018-07-08T12:18:23.003Z,2.90
2018-07-08T12:20:51.141Z,2.70
2018-07-08T12:23:19.553Z,2.62
2018-07-08T12:25:48.013Z,3.15
2018-07-08T12:28:16.074Z,3.30
2018-07-08T12:30:44.102Z,2.87
2018-07-08T12:33:12.353Z,2.70
2018-07-08T12:35:40.498Z,2.70
2018-07-08T12:38:08.922Z,2.40
2018-07-08T12:40:37.156Z,2.70
2018-07-08T12:43:05.815Z,2.50
2018-07-08T12:45:34.259Z,3.35
2018-07-08T12:48:02.339Z,2.70
2018-07-08T12:50:30.830Z,2.20
2018-07-08T12:52:59.164Z,2.40
2018-07-08T12:55:27.953Z,2.22
2018-07-08T12:57:56.357Z,2.27
2018-07-08T13:00:24.378Z,2.27
2018-07-08T13:02:52.336Z,2.62
2018-07-08T13:05:20.335Z,2.20
2018-07-08T13:07:48.310Z,2.60
2018-07-08T13:10:17.195Z,2.12
2018-07-08T13:12:45.509Z,3.00
2018-07-08T13:15:14.078Z,2.22
2018-07-08T13:17:42.434Z,2.50
2018-07-08T13:20:10.749Z,2.30
2018-07-08T13:22:39.068Z,2.70
2018-07-08T13:25:07.408Z,2.37
2018-07-08T13:27:39.722Z,2.58
2018-07-08T13:30:17.708Z,2.22
2018-07-08T13:32:45.982Z,2.45
2018-07-08T13:35:14.473Z,2.33
2018-07-08T13:37:42.530Z,2.10
2018-07-08T13:40:11.394Z,2.10
2018-07-08T13:42:39.653Z,2.12
2018-07-08T13:45:07.697Z,2.47
2018-07-08T13:47:36.128Z,2.17
2018-07-08T13:50:04.774Z,1.90
2018-07-08T13:52:32.910Z,1.90
2018-07-08T13:55:00.965Z,2.13
2018-07-08T13:57:29.627Z,1.90
2018-07-08T13:59:58.010Z,2.10
2018-07-08T14:02:26.098Z,2.50
2018-07-08T14:04:54.427Z,2.30
2018-07-08T14:07:22.736Z,2.10
2018-07-08T14:09:50.797Z,2.25
2018-07-08T14:12:18.867Z,2.20
2018-07-08T14:14:47.518Z,2.65
2018-07-08T14:17:15.494Z,2.67
2018-07-08T14:19:43.574Z,2.22
2018-07-08T14:22:11.974Z,2.30
2018-07-08T14:24:40.289Z,2.63
2018-07-08T14:27:08.891Z,2.60
2018-07-08T14:29:36.921Z,2.10
2018-07-08T14:32:05.039Z,2.10
2018-07-08T14:34:33.076Z,2.15
2018-07-08T14:37:01.323Z,2.70
2018-07-08T14:39:29.663Z,2.60
2018-07-08T14:41:58.014Z,2.30
2018-07-08T14:44:26.392Z,2.30
2018-07-08T14:46:54.703Z,2.40
2018-07-08T14:49:23.254Z,3.10
2018-07-08T14:51:51.602Z,2.55
2018-07-08T14:54:20.213Z,2.40
2018-07-08T14:56:48.525Z,2.40
2018-07-08T14:59:16.875Z,2.30
2018-07-08T15:01:45.222Z,2.15
2018-07-08T15:04:13.307Z,2.00
2018-07-08T15:06:42.151Z,2.65
2018-07-08T15:09:12.232Z,2.47
2018-07-08T15:11:41.119Z,2.70
2018-07-08T15:14:09.709Z,2.17
2018-07-08T15:16:38.062Z,2.20
2018-07-08T15:19:06.735Z,2.40
2018-07-08T15:21:35.280Z,2.27
2018-07-08T15:24:04.245Z,2.40
2018-07-08T15:26:32.335Z,2.25
2018-07-08T15:29:01.030Z,2.20
2018-07-08T15:31:29.589Z,2.60
2018-07-08T15:33:57.998Z,2.40
2018-07-08T15:36:26.643Z,2.27
2018-07-08T15:38:55.038Z,2.10
2018-07-08T15:41:23.559Z,2.27
2018-07-08T15:43:52.515Z,2.40
2018-07-08T15:46:20.881Z,2.22
2018-07-08T15:48:49.263Z,2.40
2018-07-08T15:51:17.583Z,2.50
2018-07-08T15:53:45.887Z,2.35
2018-07-08T15:56:14.410Z,2.20
2018-07-08T15:58:42.527Z,2.30
2018-07-08T16:01:10.879Z,2.50
2018-07-08T16:03:38.934Z,2.40
2018-07-08T16:06:07.015Z,2.27
2018-07-08T16:08:35.695Z,2.40
2018-07-08T16:11:04.078Z,2.50
2018-07-08T16:13:32.729Z,2.20
2018-07-08T16:16:01.094Z,2.60
2018-07-08T16:18:29.547Z,2.40
2018-07-08T16:20:57.505Z,2.70
2018-07-08T16:23:25.761Z,2.30
2018-07-08T16:25:54.607Z,2.20
2018-07-08T16:28:27.233Z,2.50
2018-07-08T16:30:57.151Z,2.05
2018-07-08T16:33:25.275Z,2.20
2018-07-08T16:35:55.593Z,2.50
2018-07-08T16:38:23.762Z,2.10
2018-07-08T16:40:53.033Z,2.30
2018-07-08T16:43:21.104Z,2.20
2018-07-08T16:45:49.584Z,2.37
2018-07-08T16:48:17.951Z,2.43
2018-07-08T16:50:46.690Z,2.80
2018-07-08T16:53:15.019Z,2.20
2018-07-08T16:55:43.156Z,2.53
2018-07-08T16:58:11.157Z,2.17
2018-07-08T17:00:39.778Z,2.30
2018-07-08T17:03:07.846Z,2.50
2018-07-08T17:05:36.018Z,2.20
2018-07-08T17:08:04.370Z,2.30
2018-07-08T17:10:33.495Z,2.40
2018-07-08T17:13:01.606Z,2.30
2018-07-08T17:15:29.918Z,2.30
2018-07-08T17:17:58.293Z,2.50
2018-07-08T17:20:26.990Z,2.40
2018-07-08T17:22:55.780Z,2.20
2018-07-08T17:25:24.195Z,2.40
2018-07-08T17:27:52.634Z,2.17
2018-07-08T17:30:20.720Z,2.77
2018-07-08T17:32:49.548Z,2.80
2018-07-08T17:35:18.711Z,2.42
2018-07-08T17:37:46.969Z,2.47
2018-07-08T17:40:15.356Z,2.30
2018-07-08T17:42:43.728Z,2.30
2018-07-08T17:45:11.745Z,2.40
2018-07-08T17:47:40.224Z,2.40
2018-07-08T17:50:08.339Z,2.60
2018-07-08T17:52:36.738Z,2.60
2018-07-08T17:55:05.234Z,2.90
2018-07-08T17:57:33.781Z,2.70
2018-07-08T18:00:02.486Z,2.53
2018-07-08T18:02:30.837Z,2.50
2018-07-08T18:04:59.217Z,2.70
2018-07-08T18:07:27.513Z,2.67
2018-07-08T18:09:57.942Z,2.60
2018-07-08T18:12:26.817Z,3.00
2018-07-08T18:14:55.856Z,2.80
2018-07-08T18:17:24.403Z,2.60
2018-07-08T18:19:52.538Z,3.05
2018-07-08T18:22:20.931Z,2.90
2018-07-08T18:24:49.622Z,3.20
2018-07-08T18:27:17.874Z,3.27
2018-07-08T18:29:45.932Z,3.10
2018-07-08T18:32:14.386Z,2.87
2018-07-08T18:34:42.449Z,3.30
2018-07-08T18:37:10.944Z,3.70
2018-07-08T18:39:39.025Z,3.50
2018-07-08T18:42:07.139Z,5.80
2018-07-08T18:44:35.542Z,3.50
2018-07-08T18:47:04.245Z,3.40
2018-07-08T18:49:32.319Z,3.40
2018-07-08T18:52:00.461Z,3.75
2018-07-08T18:54:28.584Z,3.50
2018-07-08T18:56:56.919Z,3.60
2018-07-08T18:59:25.231Z,3.73
2018-07-08T19:01:53.363Z,4.00
2018-07-08T19:04:22.063Z,3.60
2018-07-08T19:06:50.074Z,4.10
2018-07-08T19:09:18.206Z,4.37
2018-07-08T19:11:46.327Z,4.00
2018-07-08T19:14:14.787Z,4.30
2018-07-08T19:16:42.977Z,3.77
2018-07-08T19:19:11.817Z,4.30
2018-07-08T19:21:40.117Z,4.42
2018-07-08T19:24:08.359Z,3.98
2018-07-08T19:26:36.794Z,3.70
2018-07-08T19:29:05.340Z,3.92
2018-07-08T19:31:33.517Z,3.83
2018-07-08T19:34:02.125Z,3.80
2018-07-08T19:36:30.602Z,4.30
2018-07-08T19:38:58.946Z,3.80
2018-07-08T19:41:26.951Z,4.30
2018-07-08T19:43:55.344Z,4.15
2018-07-08T19:46:23.818Z,4.37
2018-07-08T19:48:52.663Z,4.17
2018-07-08T19:51:20.883Z,4.28
2018-07-08T19:56:28.062Z,4.05
2018-07-08T19:58:56.597Z,3.90
2018-07-08T20:01:25.159Z,4.10
2018-07-08T20:03:53.477Z,3.92
2018-07-08T20:06:21.998Z,4.10
2018-07-08T20:08:50.210Z,4.05
2018-07-08T20:11:18.478Z,3.80
2018-07-08T20:13:46.691Z,3.70
2018-07-08T20:16:16.252Z,3.60
2018-07-08T20:18:45.403Z,3.80
2018-07-08T20:21:13.780Z,3.60
2018-07-08T20:23:42.415Z,4.05
2018-07-08T20:26:11.094Z,4.95
2018-07-08T20:28:39.790Z,4.22
2018-07-08T20:31:07.802Z,3.60
2018-07-08T20:33:35.950Z,3.30
2018-07-08T20:36:04.734Z,3.65
2018-07-08T20:38:33.358Z,3.17
2018-07-08T20:41:02.187Z,3.70
2018-07-08T20:43:30.652Z,3.90
2018-07-08T20:45:59.457Z,3.20
2018-07-08T20:48:27.853Z,3.20
2018-07-08T20:50:55.986Z,3.20
2018-07-08T20:53:24.393Z,3.17
2018-07-08T20:55:52.737Z,3.25
2018-07-08T20:58:21.580Z,3.02
2018-07-08T21:00:49.803Z,3.50
2018-07-08T21:03:18.334Z,3.20
2018-07-08T21:05:46.365Z,2.92
2018-07-08T21:08:14.769Z,2.47
2018-07-08T21:10:43.363Z,2.20
2018-07-08T21:13:12.245Z,1.50
2018-07-08T21:15:40.725Z,2.10
2018-07-08T21:18:09.133Z,2.20
2018-07-08T21:20:38.619Z,2.42
2018-07-08T21:23:07.043Z,4.60
2018-07-08T21:25:35.923Z,4.20
2018-07-08T21:28:04.130Z,2.00
2018-07-08T21:30:32.861Z,1.40
2018-07-08T21:33:00.877Z,1.60
2018-07-08T21:35:29.695Z,1.50
2018-07-08T21:37:57.729Z,1.20
2018-07-08T21:40:26.079Z,1.47
2018-07-08T21:42:54.323Z,1.30
2018-07-08T21:45:22.389Z,1.30
2018-07-08T21:47:50.991Z,1.30
2018-07-08T21:50:19.772Z,1.40
2018-07-08T21:52:47.982Z,1.70
2018-07-08T21:55:16.233Z,1.40
2018-07-08T21:57:44.851Z,1.40
2018-07-08T22:00:13.094Z,1.60
2018-07-08T22:02:41.465Z,1.50
2018-07-08T22:05:10.054Z,1.40
2018-07-08T22:07:43.425Z,1.30
2018-07-08T22:10:12.243Z,1.40
2018-07-08T22:12:40.432Z,1.40
2018-07-08T22:15:09.064Z,1.90
2018-07-08T22:17:37.418Z,1.12
2018-07-08T22:20:05.695Z,1.70
2018-07-08T22:22:33.897Z,1.70
2018-07-08T22:25:02.096Z,1.50
2018-07-08T22:27:30.130Z,1.37
2018-07-08T22:29:58.193Z,1.60
2018-07-08T22:32:26.755Z,1.62
2018-07-08T22:34:54.878Z,1.60
2018-07-08T22:37:23.250Z,1.43
2018-07-08T22:39:51.454Z,1.75
2018-07-08T22:42:19.810Z,1.70
2018-07-08T22:44:48.666Z,1.60
2018-07-08T22:47:16.837Z,1.70
2018-07-08T22:49:45.197Z,1.80
2018-07-08T22:52:13.345Z,1.60
2018-07-08T22:54:41.634Z,1.80
2018-07-08T22:57:09.854Z,1.80
2018-07-08T22:59:43.548Z,1.70
2018-07-08T23:02:17.263Z,2.00
2018-07-08T23:04:45.705Z,1.57
2018-07-08T23:07:14.281Z,1.80
2018-07-08T23:09:42.787Z,1.60
2018-07-08T23:12:11.556Z,2.00
2018-07-08T23:14:39.923Z,1.70
2018-07-08T23:17:08.429Z,2.40
2018-07-08T23:19:36.794Z,1.90
2018-07-08T23:22:05.791Z,1.80
2018-07-08T23:24:34.271Z,1.85
2018-07-08T23:27:02.311Z,1.72
2018-07-08T23:29:30.522Z,1.50
2018-07-08T23:31:58.605Z,1.70
2018-07-08T23:34:26.967Z,1.72
2018-07-08T23:36:55.450Z,1.90
2018-07-08T23:39:23.530Z,1.93
2018-07-08T23:41:51.541Z,1.70
2018-07-08T23:44:20.103Z,2.10
2018-07-08T23:46:48.737Z,2.10
2018-07-08T23:49:16.834Z,2.05
2018-07-08T23:51:45.726Z,2.25
2018-07-08T23:54:14.003Z,1.60
2018-07-08T23:56:42.989Z,2.08
2018-07-08T23:59:11.277Z,1.95
